Time;durP1;ratioP1;P1;durP2;ratioP2;P2;SDS_P1;SDS_P2;PMS_P1;PMS_P2;Temp;Humidity;BMP_temperature;BMP_pressure;BME280_temperature;BME280_humidity;BME280_pressure;Samples;Min_cycle;Max_cycle;Signal;HPM_P1;HPM_P2
2023/01/24 00:01:26;;;;;;;21.23;9.73;;;6.70;48.10;;;;;;6325946;28;20075;-69
2023/01/24 00:04:27;;;;;;;21.58;8.85;;;6.70;48.20;;;;;;6316935;28;20207;-68
2023/01/24 00:07:28;;;;;;;17.45;8.25;;;6.70;48.30;;;;;;6299514;28;20029;-68
2023/01/24 00:10:29;;;;;;;18.85;9.05;;;6.60;48.40;;;;;;6299562;28;20109;-68
2023/01/24 00:13:31;;;;;;;21.95;8.48;;;6.60;48.50;;;;;;6301349;28;20498;-69
2023/01/24 00:16:32;;;;;;;18.00;8.02;;;6.50;48.60;;;;;;6300120;28;20033;-69
2023/01/24 00:19:33;;;;;;;21.10;8.80;;;6.50;48.70;;;;;;6308463;28;20067;-69
2023/01/24 00:22:34;;;;;;;18.20;7.35;;;6.40;48.80;;;;;;6313011;28;20024;-70
2023/01/24 00:25:35;;;;;;;18.05;8.13;;;6.40;48.80;;;;;;6300946;28;20027;-70
2023/01/24 00:28:36;;;;;;;15.02;8.32;;;6.40;48.90;;;;;;6299862;28;20555;-68
2023/01/24 00:31:39;;;;;;;17.60;7.60;;;6.30;48.80;;;;;;6298926;28;20036;-68
2023/01/24 00:34:40;;;;;;;14.20;6.65;;;6.20;48.90;;;;;;6298678;28;20119;-69
2023/01/24 00:37:41;;;;;;;15.27;6.57;;;6.10;48.70;;;;;;6298602;28;20318;-68
2023/01/24 00:40:42;;;;;;;22.85;7.60;;;6.10;48.80;;;;;;6299554;28;20033;-68
2023/01/24 00:43:43;;;;;;;16.40;6.20;;;6.00;48.80;;;;;;6298523;28;20028;-68
2023/01/24 00:46:44;;;;;;;13.98;6.53;;;5.90;48.90;;;;;;6299671;28;20112;-69
2023/01/24 00:49:45;;;;;;;14.77;6.25;;;5.80;49.00;;;;;;6299360;28;20109;-70
2023/01/24 00:52:46;;;;;;;16.60;6.95;;;5.70;49.10;;;;;;6281643;28;20501;-69
2023/01/24 00:55:48;;;;;;;14.32;5.53;;;5.60;49.20;;;;;;6298250;28;20333;-70
2023/01/24 00:58:50;;;;;;;11.15;5.15;;;5.60;49.30;;;;;;6281007;28;20086;-69
2023/01/24 01:01:51;;;;;;;16.02;6.20;;;5.50;49.30;;;;;;6298013;28;20021;-68
2023/01/24 01:04:52;;;;;;;25.45;5.95;;;5.50;49.40;;;;;;6298507;28;20043;-68
2023/01/24 01:07:52;;;;;;;13.23;5.55;;;5.40;49.30;;;;;;6297987;28;20036;-69
2023/01/24 01:10:54;;;;;;;8.02;4.55;;;5.40;49.20;;;;;;6315531;28;20044;-68
2023/01/24 01:13:57;;;;;;;10.50;4.50;;;5.30;49.00;;;;;;6299191;28;20027;-69
2023/01/24 01:16:58;;;;;;;11.15;5.70;;;5.30;49.00;;;;;;6299194;28;20024;-68
2023/01/24 01:19:58;;;;;;;11.27;5.65;;;5.30;49.00;;;;;;6314453;28;20079;-68
2023/01/24 01:23:00;;;;;;;13.20;5.40;;;5.20;48.90;;;;;;6299841;28;20051;-69
2023/01/24 01:26:03;;;;;;;12.50;6.03;;;5.20;48.90;;;;;;6321778;28;20079;-70
2023/01/24 01:29:04;;;;;;;12.90;5.13;;;5.10;48.90;;;;;;6284828;28;20067;-68
2023/01/24 01:32:05;;;;;;;11.50;5.20;;;5.10;49.00;;;;;;6299290;28;20020;-69
2023/01/24 01:35:06;;;;;;;11.73;4.47;;;5.00;49.00;;;;;;6314383;28;20055;-68
2023/01/24 01:38:07;;;;;;;10.38;4.78;;;5.00;49.20;;;;;;6298500;28;20032;-69
2023/01/24 01:41:10;;;;;;;14.05;5.05;;;5.00;49.10;;;;;;6298559;28;20103;-70
2023/01/24 01:44:40;;;;;;;10.63;5.70;;;5.00;49.00;;;;;;6299095;28;20086;-68
2023/01/24 01:47:41;;;;;;;9.23;4.50;;;5.00;49.00;;;;;;6297209;28;20346;-68
2023/01/24 01:50:58;;;;;;;6.22;3.33;;;5.00;49.00;;;;;;6314013;28;20036;-68
2023/01/24 01:54:14;;;;;;;12.93;5.28;;;4.90;48.90;;;;;;6298462;28;20111;-69
2023/01/24 01:57:19;;;;;;;12.93;5.70;;;4.90;48.90;;;;;;6307539;28;20071;-70
2023/01/24 02:00:27;;;;;;;10.80;5.05;;;4.90;49.00;;;;;;6323213;28;20032;-69
2023/01/24 02:03:38;;;;;;;9.38;4.78;;;4.80;49.00;;;;;;6323430;28;20471;-69
2023/01/24 02:07:04;;;;;;;14.25;5.70;;;4.80;49.10;;;;;;6323134;28;20069;-69
2023/01/24 02:10:05;;;;;;;12.32;4.95;;;4.80;49.10;;;;;;6321525;28;20032;-67
2023/01/24 02:13:07;;;;;;;10.82;4.88;;;4.80;49.10;;;;;;6321758;28;20047;-69
2023/01/24 02:16:12;;;;;;;13.13;5.82;;;4.80;49.20;;;;;;6320754;28;20097;-69
2023/01/24 02:19:39;;;;;;;12.90;5.20;;;4.80;49.20;;;;;;6304298;28;20031;-68
2023/01/24 02:22:53;;;;;;;7.53;4.60;;;4.90;49.20;;;;;;6303470;28;20032;-68
2023/01/24 02:26:14;;;;;;;14.20;4.95;;;4.90;49.10;;;;;;6320247;28;20034;-68
2023/01/24 02:29:16;;;;;;;10.18;4.88;;;5.00;49.10;;;;;;6320947;28;20024;-69
2023/01/24 02:32:18;;;;;;;14.13;5.85;;;5.00;49.00;;;;;;6328893;28;20043;-72
2023/01/24 02:35:31;;;;;;;10.98;4.43;;;5.00;48.90;;;;;;6334195;28;20667;-70
2023/01/24 02:38:32;;;;;;;9.13;4.45;;;5.00;48.90;;;;;;6321408;28;20035;-69
2023/01/24 02:41:37;;;;;;;11.93;5.05;;;5.00;48.80;;;;;;6320774;28;20491;-69
2023/01/24 02:44:48;;;;;;;6.80;4.32;;;5.00;48.90;;;;;;6320895;28;20028;-69
2023/01/24 02:47:52;;;;;;;8.65;5.40;;;5.00;48.80;;;;;;6320416;28;20523;-67
2023/01/24 02:54:13;;;;;;;10.75;5.13;;;5.00;48.80;;;;;;6337768;28;20061;-69
2023/01/24 03:00:39;;;;;;;15.57;5.03;;;4.90;48.80;;;;;;6345815;28;20155;-67
2023/01/24 03:03:42;;;;;;;6.30;3.63;;;5.00;48.70;;;;;;6343305;28;20027;-68
2023/01/24 03:06:43;;;;;;;10.85;4.88;;;5.00;48.70;;;;;;6304006;28;20032;-67
2023/01/24 03:09:47;;;;;;;11.18;4.55;;;5.00;48.60;;;;;;6321342;28;20032;-69
2023/01/24 03:36:13;;;;;;;8.65;4.22;;;5.10;48.80;;;;;;6325329;28;20494;-69
2023/01/24 03:42:34;;;;;;;17.70;5.78;;;5.10;48.70;;;;;;6325234;28;20024;-67
2023/01/24 03:45:38;;;;;;;12.82;5.10;;;5.10;48.70;;;;;;6325115;28;20104;-67
2023/01/24 03:48:40;;;;;;;8.20;4.30;;;5.10;48.70;;;;;;6324542;28;20032;-69
2023/01/24 03:55:01;;;;;;;14.35;4.85;;;5.10;48.80;;;;;;6324946;28;20111;-69
2023/01/24 03:58:04;;;;;;;13.23;6.85;;;5.10;48.80;;;;;;6325732;28;20173;-69
2023/01/24 04:01:06;;;;;;;10.18;5.63;;;5.10;48.90;;;;;;6308008;28;20400;-70
2023/01/24 04:05:12;;;;;;;9.10;5.13;;;5.10;48.90;;;;;;6285951;28;20082;-69
2023/01/24 04:07:53;;;;;;;11.25;5.50;;;5.10;48.90;;;;;;6299834;28;20029;-68
2023/01/24 04:10:56;;;;;;;10.52;4.88;;;5.10;48.90;;;;;;6324606;28;20058;-67
2023/01/24 04:13:57;;;;;;;12.57;5.00;;;5.10;48.90;;;;;;6324574;28;20056;-69
2023/01/24 04:16:58;;;;;;;12.38;6.03;;;5.10;48.90;;;;;;6326325;28;20043;-69
2023/01/24 04:20:04;;;;;;;12.48;5.05;;;5.10;48.90;;;;;;6324925;28;20059;-69
2023/01/24 04:23:08;;;;;;;11.80;5.63;;;5.20;48.90;;;;;;6325188;28;20077;-70
2023/01/24 04:26:11;;;;;;;9.55;5.22;;;5.20;48.90;;;;;;6324161;28;20028;-70
2023/01/24 04:29:12;;;;;;;11.30;5.93;;;5.10;48.80;;;;;;6323976;28;20028;-69
2023/01/24 04:32:13;;;;;;;12.25;4.95;;;5.10;48.90;;;;;;6323922;28;20028;-68
2023/01/24 04:35:35;;;;;;;15.98;5.18;;;5.10;48.90;;;;;;6325043;28;20036;-68
2023/01/24 04:38:35;;;;;;;16.83;6.00;;;5.10;48.90;;;;;;6322778;28;20079;-68
2023/01/24 04:41:56;;;;;;;12.55;5.43;;;5.10;48.90;;;;;;6325766;28;20043;-69
2023/01/24 04:44:57;;;;;;;15.10;5.85;;;5.20;49.00;;;;;;6344629;28;20372;-67
2023/01/24 04:47:58;;;;;;;9.82;4.85;;;5.20;48.90;;;;;;6327485;28;20035;-69
2023/01/24 04:51:01;;;;;;;11.15;5.68;;;5.10;48.90;;;;;;6324279;28;20020;-68
2023/01/24 04:54:03;;;;;;;14.68;4.75;;;5.10;48.90;;;;;;6323320;28;20089;-68
2023/01/24 04:57:06;;;;;;;11.93;5.72;;;5.00;49.00;;;;;;6323433;28;20031;-69
2023/01/24 05:00:09;;;;;;;13.90;4.95;;;5.00;49.00;;;;;;6323021;28;20141;-67
2023/01/24 05:03:10;;;;;;;15.10;5.80;;;5.00;49.00;;;;;;6323292;28;20024;-68
2023/01/24 05:06:12;;;;;;;12.07;4.68;;;5.10;49.00;;;;;;6283117;28;20165;-68
2023/01/24 05:09:13;;;;;;;9.50;4.80;;;5.00;49.00;;;;;;6313400;28;20028;-68
2023/01/24 05:12:30;;;;;;;16.35;6.15;;;5.00;49.00;;;;;;6322753;28;20114;-69
2023/01/24 05:15:35;;;;;;;12.68;6.65;;;4.90;49.20;;;;;;6322881;28;20027;-69
2023/01/24 05:18:37;;;;;;;10.55;5.28;;;4.90;49.30;;;;;;6322425;28;20483;-68
2023/01/24 05:21:38;;;;;;;13.70;5.55;;;4.90;49.40;;;;;;6305994;28;20031;-70
2023/01/24 05:24:39;;;;;;;13.68;6.70;;;4.80;49.50;;;;;;6322632;28;20464;-68
2023/01/24 05:27:41;;;;;;;23.80;7.45;;;4.80;49.60;;;;;;6305624;28;20026;-68
2023/01/24 05:30:42;;;;;;;13.95;6.28;;;4.70;49.70;;;;;;6322311;28;20036;-69
2023/01/24 05:34:00;;;;;;;12.33;6.63;;;4.70;49.80;;;;;;6322484;28;20024;-70
2023/01/24 05:37:01;;;;;;;12.82;6.03;;;4.60;50.00;;;;;;6323637;28;20039;-68
2023/01/24 05:40:03;;;;;;;14.23;6.95;;;4.50;50.10;;;;;;6321881;28;20031;-68
2023/01/24 05:43:05;;;;;;;14.23;7.20;;;4.60;50.30;;;;;;6321895;28;20030;-69
2023/01/24 05:46:12;;;;;;;16.83;5.35;;;4.50;50.30;;;;;;6322428;28;20123;-68
2023/01/24 05:49:19;;;;;;;14.43;4.50;;;4.50;50.30;;;;;;6323915;28;20028;-68
2023/01/24 05:52:21;;;;;;;18.45;6.13;;;4.60;50.40;;;;;;6309410;28;20062;-67
2023/01/24 05:55:25;;;;;;;11.40;5.82;;;4.60;50.40;;;;;;6324310;28;20093;-70
2023/01/24 05:58:31;;;;;;;12.00;5.78;;;4.60;50.40;;;;;;6323860;28;20539;-69
2023/01/24 06:01:41;;;;;;;20.63;5.32;;;4.60;50.50;;;;;;6321904;28;20035;-68
2023/01/24 06:04:43;;;;;;;13.32;5.70;;;4.50;50.50;;;;;;6321315;28;20031;-69
2023/01/24 06:07:45;;;;;;;15.73;7.32;;;4.50;50.60;;;;;;6321239;28;20028;-69
2023/01/24 06:10:47;;;;;;;9.45;4.63;;;4.50;50.70;;;;;;6322688;28;20445;-67
2023/01/24 06:13:49;;;;;;;10.35;6.15;;;4.50;50.70;;;;;;6321524;28;20034;-70
2023/01/24 06:16:50;;;;;;;10.18;6.55;;;4.40;50.70;;;;;;6304303;28;20070;-69
2023/01/24 06:19:52;;;;;;;12.63;5.85;;;4.40;50.80;;;;;;6304146;28;20055;-67
2023/01/24 06:23:01;;;;;;;12.20;5.55;;;4.50;50.90;;;;;;6321070;28;20149;-68
2023/01/24 06:26:03;;;;;;;8.10;4.38;;;4.40;50.90;;;;;;6321282;28;20476;-70
2023/01/24 06:29:04;;;;;;;13.68;5.82;;;4.40;50.90;;;;;;6320732;28;20024;-70
2023/01/24 06:32:10;;;;;;;8.80;5.13;;;4.40;50.90;;;;;;6322451;28;20388;-69
2023/01/24 06:35:52;;;;;;;19.48;6.07;;;4.30;50.90;;;;;;6321999;28;20073;-68
2023/01/24 06:38:53;;;;;;;11.05;5.75;;;4.30;51.00;;;;;;6317490;28;20075;-69
2023/01/24 06:41:54;;;;;;;17.20;5.45;;;4.20;51.10;;;;;;6322371;28;20450;-69
2023/01/24 06:44:55;;;;;;;14.88;6.03;;;4.20;51.10;;;;;;6322090;28;20069;-70
2023/01/24 06:47:57;;;;;;;7.88;4.97;;;4.20;51.30;;;;;;6321506;28;20357;-68
2023/01/24 06:51:00;;;;;;;11.05;4.10;;;4.10;51.30;;;;;;6322131;28;20484;-72
2023/01/24 06:54:01;;;;;;;12.35;4.28;;;4.10;51.40;;;;;;6323016;28;20081;-70
2023/01/24 06:57:03;;;;;;;14.30;5.95;;;4.00;51.40;;;;;;6336943;28;20036;-71
2023/01/24 07:00:05;;;;;;;7.65;4.47;;;4.00;51.50;;;;;;6324370;28;20463;-70
2023/01/24 07:03:07;;;;;;;15.95;5.13;;;3.90;51.60;;;;;;6323059;28;20031;-70
2023/01/24 07:06:08;;;;;;;12.15;5.00;;;3.90;51.70;;;;;;6294363;28;20473;-70
2023/01/24 07:09:09;;;;;;;9.43;4.22;;;3.90;51.70;;;;;;6295999;28;20032;-69
2023/01/24 07:12:10;;;;;;;10.70;5.82;;;3.90;51.80;;;;;;6297185;28;20032;-67
2023/01/24 07:15:11;;;;;;;8.50;4.20;;;4.00;51.80;;;;;;6296381;28;20020;-70
2023/01/24 07:18:13;;;;;;;11.30;4.55;;;4.00;51.90;;;;;;6295358;28;20117;-68
2023/01/24 07:21:14;;;;;;;12.05;5.93;;;4.00;52.40;;;;;;6296344;28;20041;-68
2023/01/24 07:24:19;;;;;;;11.70;3.95;;;4.00;51.80;;;;;;6278988;28;20029;-69
2023/01/24 07:27:20;;;;;;;10.32;4.15;;;4.00;51.80;;;;;;6297425;28;20048;-68
2023/01/24 07:30:21;;;;;;;13.00;5.32;;;4.10;51.70;;;;;;6295785;28;20070;-69
2023/01/24 07:33:22;;;;;;;20.75;4.68;;;4.10;51.60;;;;;;6296199;28;20032;-68
2023/01/24 07:36:22;;;;;;;15.70;5.28;;;4.10;51.60;;;;;;6319325;28;20077;-68
2023/01/24 07:39:23;;;;;;;16.15;5.80;;;4.10;51.60;;;;;;6320516;28;20024;-69
2023/01/24 07:42:24;;;;;;;14.32;6.05;;;4.00;51.50;;;;;;6319796;28;20368;-71
2023/01/24 07:45:25;;;;;;;15.05;4.25;;;4.00;51.60;;;;;;6321023;28;20096;-70
2023/01/24 07:48:26;;;;;;;10.27;5.75;;;3.90;51.70;;;;;;6320915;28;20073;-68
2023/01/24 07:51:27;;;;;;;12.60;6.25;;;4.00;51.80;;;;;;6319905;28;20040;-68
2023/01/24 07:54:28;;;;;;;16.55;7.68;;;3.90;51.80;;;;;;6321189;28;20031;-68
2023/01/24 07:57:29;;;;;;;9.70;5.30;;;3.90;51.90;;;;;;6319226;28;20044;-68
2023/01/24 08:00:31;;;;;;;14.57;7.20;;;3.90;52.00;;;;;;6319203;28;20036;-70
2023/01/24 08:03:32;;;;;;;9.93;4.70;;;3.90;52.00;;;;;;6319620;28;20068;-68
2023/01/24 08:06:33;;;;;;;10.95;5.40;;;3.90;52.00;;;;;;6295460;28;20040;-69
2023/01/24 08:09:33;;;;;;;9.48;5.40;;;4.00;52.00;;;;;;6295300;28;20103;-70
2023/01/24 08:12:34;;;;;;;14.85;6.05;;;4.00;52.00;;;;;;6295593;28;20476;-71
2023/01/24 08:15:35;;;;;;;12.80;5.18;;;4.00;52.00;;;;;;6298516;28;20373;-69
2023/01/24 08:18:40;;;;;;;14.75;6.90;;;4.00;51.90;;;;;;6299929;28;20029;-69
2023/01/24 08:21:41;;;;;;;11.95;6.13;;;4.00;51.80;;;;;;6299783;28;20069;-70
2023/01/24 08:24:42;;;;;;;9.60;4.47;;;4.10;51.80;;;;;;6300064;28;20025;-69
2023/01/24 08:27:43;;;;;;;15.63;5.82;;;4.10;51.70;;;;;;6298358;28;20093;-69
2023/01/24 08:30:44;;;;;;;11.07;5.43;;;4.10;51.50;;;;;;6308553;28;20476;-69
2023/01/24 08:33:45;;;;;;;18.05;4.97;;;4.10;52.10;;;;;;6324666;28;20057;-70
2023/01/24 08:36:46;;;;;;;18.02;5.57;;;4.20;51.60;;;;;;6323480;28;20059;-70
2023/01/24 08:39:46;;;;;;;18.17;7.32;;;4.20;51.60;;;;;;6324100;28;20036;-69
2023/01/24 08:42:47;;;;;;;16.90;6.50;;;4.30;51.60;;;;;;6324443;28;20540;-68
2023/01/24 08:45:53;;;;;;;13.02;6.25;;;4.30;51.50;;;;;;6324347;28;20081;-70
2023/01/24 08:48:54;;;;;;;17.27;7.53;;;4.40;51.60;;;;;;6322951;28;20028;-67
2023/01/24 08:51:58;;;;;;;16.92;6.85;;;4.50;51.50;;;;;;6324537;28;20032;-70
2023/01/24 08:54:59;;;;;;;18.50;7.15;;;4.60;51.40;;;;;;6324773;28;20043;-70
2023/01/24 08:58:02;;;;;;;15.95;7.47;;;4.80;51.30;;;;;;6322459;28;20036;-68
2023/01/24 09:01:07;;;;;;;15.10;6.75;;;4.90;51.20;;;;;;6306879;28;20032;-68
2023/01/24 09:04:10;;;;;;;13.45;7.22;;;5.00;51.10;;;;;;6301843;28;20557;-68
2023/01/24 09:07:12;;;;;;;26.05;7.93;;;5.10;51.00;;;;;;6315716;28;20028;-68
2023/01/24 09:10:13;;;;;;;15.20;7.30;;;5.20;50.90;;;;;;6300237;28;20036;-69
2023/01/24 09:13:17;;;;;;;15.45;7.80;;;5.30;50.70;;;;;;6300036;28;20495;-69
2023/01/24 09:16:18;;;;;;;23.88;7.82;;;5.40;50.60;;;;;;6299650;28;20471;-69
2023/01/24 09:19:19;;;;;;;24.90;7.85;;;5.50;50.50;;;;;;6298864;28;20033;-69
2023/01/24 09:22:23;;;;;;;23.55;8.88;;;5.50;50.50;;;;;;6280983;28;20035;-68
2023/01/24 09:25:24;;;;;;;26.40;7.57;;;5.60;50.40;;;;;;6298243;28;20088;-68
2023/01/24 09:28:25;;;;;;;16.48;7.53;;;5.70;50.30;;;;;;6318671;28;20024;-70
2023/01/24 09:31:26;;;;;;;17.27;8.00;;;5.70;50.00;;;;;;6323388;28;20036;-69
2023/01/24 09:34:27;;;;;;;16.30;7.78;;;5.70;49.90;;;;;;6323954;28;20032;-70
2023/01/24 09:37:28;;;;;;;22.92;9.02;;;5.70;49.90;;;;;;6323399;28;20024;-70
2023/01/24 09:40:44;;;;;;;13.95;6.97;;;5.70;50.00;;;;;;6322239;28;20039;-68
2023/01/24 09:43:58;;;;;;;16.00;8.40;;;5.80;49.80;;;;;;6324249;28;20052;-70
2023/01/24 09:47:09;;;;;;;25.52;9.13;;;5.90;49.70;;;;;;6321949;28;20139;-70
2023/01/24 09:50:40;;;;;;;17.60;8.45;;;5.90;49.40;;;;;;6321656;28;20036;-70
2023/01/24 09:53:46;;;;;;;18.98;8.13;;;5.90;49.50;;;;;;6326353;28;20024;-69
2023/01/24 09:56:47;;;;;;;21.85;9.27;;;6.00;49.50;;;;;;6324759;28;20387;-68
2023/01/24 10:00:00;;;;;;;38.90;11.48;;;6.10;49.30;;;;;;6321702;28;20032;-70
2023/01/24 10:03:19;;;;;;;16.23;6.60;;;6.20;49.00;;;;;;6322217;28;20039;-70
2023/01/24 10:06:26;;;;;;;16.23;6.88;;;6.20;48.70;;;;;;6297769;28;20024;-69
2023/01/24 10:09:49;;;;;;;32.85;7.95;;;6.30;48.20;;;;;;6279596;28;20052;-71
2023/01/24 10:12:56;;;;;;;20.90;8.85;;;6.30;48.30;;;;;;6296081;28;20037;-67
2023/01/24 10:16:22;;;;;;;15.98;7.05;;;6.30;48.30;;;;;;6297372;28;20025;-70
2023/01/24 10:19:57;;;;;;;18.13;8.13;;;6.50;47.90;;;;;;6269665;28;20124;-69
2023/01/24 10:23:06;;;;;;;26.73;8.90;;;6.80;47.40;;;;;;6281832;28;20153;-70
2023/01/24 10:26:15;;;;;;;16.73;7.38;;;7.00;47.00;;;;;;6286028;28;20115;-69
2023/01/24 10:29:30;;;;;;;17.42;7.97;;;7.30;46.60;;;;;;6302444;28;20052;-68
2023/01/24 10:32:33;;;;;;;28.42;8.93;;;7.50;46.50;;;;;;6302259;28;20111;-68
2023/01/24 10:35:58;;;;;;;16.15;7.43;;;7.60;46.00;;;;;;6319328;28;20036;-69
2023/01/24 10:38:59;;;;;;;18.67;8.23;;;7.80;45.70;;;;;;6317843;28;20105;-69
2023/01/24 10:42:00;;;;;;;37.70;8.95;;;8.00;45.40;;;;;;6301692;28;20043;-68
2023/01/24 10:45:21;;;;;;;24.52;9.32;;;8.10;44.90;;;;;;6318814;28;20156;-69
2023/01/24 10:48:35;;;;;;;21.65;7.88;;;8.20;44.50;;;;;;6318430;28;20032;-70
2023/01/24 10:51:36;;;;;;;24.50;8.43;;;8.40;44.40;;;;;;6318909;28;20043;-69
2023/01/24 10:55:25;;;;;;;28.80;8.88;;;8.50;43.90;;;;;;6318961;28;20488;-68
2023/01/24 10:58:28;;;;;;;21.60;8.52;;;8.70;43.80;;;;;;6344049;28;20063;-68
2023/01/24 11:05:55;;;;;;;21.08;8.05;;;9.20;42.90;;;;;;6327772;28;20016;-68
2023/01/24 11:09:05;;;;;;;29.15;10.88;;;9.50;41.90;;;;;;6320848;28;20024;-68
2023/01/24 11:12:13;;;;;;;22.98;8.30;;;9.70;41.60;;;;;;6321294;28;20056;-68
2023/01/24 11:15:21;;;;;;;25.67;8.90;;;9.90;41.30;;;;;;6321077;28;20027;-69
2023/01/24 11:18:27;;;;;;;23.77;10.70;;;10.00;40.40;;;;;;6319557;28;20036;-69
2023/01/24 11:21:30;;;;;;;19.40;9.15;;;10.20;40.10;;;;;;6319221;28;20040;-70
2023/01/24 11:24:43;;;;;;;23.70;11.13;;;10.40;39.60;;;;;;6321012;28;20020;-68
2023/01/24 11:27:49;;;;;;;27.35;11.02;;;10.60;39.50;;;;;;6320573;28;20135;-69
2023/01/24 11:30:56;;;;;;;32.17;10.27;;;11.00;39.20;;;;;;6320492;28;20059;-68
2023/01/24 11:34:11;;;;;;;27.98;11.15;;;11.30;38.80;;;;;;6319030;28;20032;-69
2023/01/24 11:37:39;;;;;;;28.10;12.50;;;11.70;37.70;;;;;;6320832;28;20020;-68
2023/01/24 11:40:51;;;;;;;22.03;8.67;;;12.20;37.20;;;;;;6319054;28;20102;-70
2023/01/24 11:44:55;;;;;;;23.23;10.40;;;12.70;35.80;;;;;;6320941;28;20032;-69
2023/01/24 11:48:23;;;;;;;21.60;9.57;;;12.90;35.40;;;;;;6293067;28;20044;-69
2023/01/24 11:51:31;;;;;;;22.13;9.50;;;13.30;35.10;;;;;;6264486;28;20035;-68
2023/01/24 11:54:41;;;;;;;19.77;9.15;;;13.60;34.10;;;;;;6298251;28;20036;-70
2023/01/24 11:58:03;;;;;;;21.15;9.18;;;13.80;33.80;;;;;;6297238;28;20614;-70
2023/01/24 12:01:10;;;;;;;20.15;8.95;;;14.00;33.10;;;;;;6297829;28;20106;-71
2023/01/24 12:04:45;;;;;;;16.10;8.02;;;14.00;32.50;;;;;;6291259;28;20025;-68
2023/01/24 12:08:04;;;;;;;18.10;7.38;;;13.90;32.20;;;;;;6272335;28;20029;-68
2023/01/24 12:11:32;;;;;;;20.63;8.90;;;13.70;32.30;;;;;;6272546;28;20531;-70
2023/01/24 12:14:36;;;;;;;16.02;7.60;;;13.30;33.20;;;;;;6272275;28;20033;-70
2023/01/24 12:18:05;;;;;;;17.20;6.82;;;12.80;33.70;;;;;;6303251;28;20094;-68
2023/01/24 12:21:10;;;;;;;14.75;7.22;;;12.20;34.00;;;;;;6325526;28;20029;-68
2023/01/24 12:24:27;;;;;;;21.00;8.43;;;11.50;35.00;;;;;;6325503;28;20450;-70
2023/01/24 12:27:31;;;;;;;20.35;8.07;;;11.10;35.90;;;;;;6323255;28;20042;-69
2023/01/24 12:30:47;;;;;;;18.50;7.88;;;10.70;36.50;;;;;;6324937;28;20480;-71
2023/01/24 12:33:59;;;;;;;21.67;7.03;;;10.50;37.20;;;;;;6324858;28;20082;-70
2023/01/24 12:37:08;;;;;;;12.73;6.57;;;10.30;37.60;;;;;;6323894;28;20044;-70
2023/01/24 12:40:12;;;;;;;21.52;7.03;;;10.20;37.80;;;;;;6324421;28;20086;-70
2023/01/24 12:43:24;;;;;;;16.90;7.68;;;10.00;37.90;;;;;;6324160;28;20062;-69
2023/01/24 12:46:44;;;;;;;20.98;8.50;;;9.90;38.20;;;;;;6324982;28;20491;-68
2023/01/24 12:50:04;;;;;;;18.73;7.95;;;9.80;38.50;;;;;;6324398;28;20104;-70
2023/01/24 12:53:14;;;;;;;18.30;7.13;;;9.70;38.80;;;;;;6323391;28;20040;-68
2023/01/24 12:56:30;;;;;;;25.55;8.38;;;9.70;39.00;;;;;;6325040;28;20032;-70
2023/01/24 12:59:33;;;;;;;21.88;8.75;;;9.60;39.20;;;;;;6323159;28;20111;-68
2023/01/24 13:03:13;;;;;;;20.27;7.13;;;9.60;39.40;;;;;;6324402;28;20082;-69
2023/01/24 13:06:20;;;;;;;15.82;7.47;;;9.50;39.50;;;;;;6304854;28;20024;-67
2023/01/24 13:09:33;;;;;;;19.25;7.72;;;9.50;40.30;;;;;;6303842;28;20025;-66
2023/01/24 13:12:34;;;;;;;19.33;8.27;;;9.40;39.90;;;;;;6315078;28;20458;-71
2023/01/24 13:15:51;;;;;;;25.55;9.10;;;9.40;40.00;;;;;;6333028;28;20060;-69
2023/01/24 13:19:12;;;;;;;19.80;7.90;;;9.50;40.10;;;;;;6329767;28;20052;-67
2023/01/24 13:22:32;;;;;;;15.35;7.93;;;9.40;40.10;;;;;;6322570;28;20080;-68
2023/01/24 13:26:03;;;;;;;19.40;7.25;;;9.40;40.20;;;;;;6323121;28;20016;-70
2023/01/24 13:29:23;;;;;;;21.92;8.00;;;9.40;40.30;;;;;;6321587;28;20425;-68
2023/01/24 13:32:24;;;;;;;19.55;8.02;;;9.30;40.30;;;;;;6321369;28;20491;-69
2023/01/24 13:35:26;;;;;;;17.33;7.10;;;9.30;40.50;;;;;;6322695;28;20499;-69
2023/01/24 13:38:35;;;;;;;12.68;5.95;;;9.20;40.70;;;;;;6324687;28;20024;-68
2023/01/24 13:41:38;;;;;;;21.95;7.40;;;9.20;40.90;;;;;;6309292;28;20027;-68
2023/01/24 13:44:39;;;;;;;17.63;6.97;;;9.20;41.00;;;;;;6326256;28;20574;-67
2023/01/24 13:47:40;;;;;;;16.15;7.28;;;9.10;41.00;;;;;;6324146;28;20043;-70
2023/01/24 13:50:41;;;;;;;19.30;7.95;;;9.10;41.20;;;;;;6321933;28;20115;-68
2023/01/24 13:54:00;;;;;;;16.80;7.43;;;9.10;41.30;;;;;;6322974;28;20040;-71
2023/01/24 13:57:21;;;;;;;22.02;7.93;;;9.10;41.50;;;;;;6322167;28;20028;-70
2023/01/24 14:00:25;;;;;;;19.25;7.95;;;9.10;41.50;;;;;;6321907;28;20471;-69
2023/01/24 14:03:33;;;;;;;18.73;7.93;;;9.20;41.50;;;;;;6322217;28;20111;-69
2023/01/24 14:06:41;;;;;;;20.70;8.35;;;9.20;41.40;;;;;;6297430;28;20024;-68
2023/01/24 14:09:42;;;;;;;16.38;8.05;;;9.20;41.30;;;;;;6317985;28;20407;-71
2023/01/24 14:12:53;;;;;;;16.42;6.82;;;9.10;41.40;;;;;;6322469;28;20035;-70
2023/01/24 14:15:54;;;;;;;20.10;7.78;;;9.20;41.50;;;;;;6320898;28;20035;-71
2023/01/24 14:19:16;;;;;;;21.73;8.45;;;9.20;41.50;;;;;;6322050;28;20032;-71
2023/01/24 14:22:27;;;;;;;17.25;6.57;;;9.30;41.60;;;;;;6320685;28;20117;-68
2023/01/24 14:25:38;;;;;;;28.13;8.82;;;9.30;41.50;;;;;;6321468;28;20357;-70
2023/01/24 14:28:49;;;;;;;20.17;8.07;;;9.40;41.50;;;;;;6321691;28;20035;-68
2023/01/24 14:31:54;;;;;;;24.48;9.30;;;9.40;41.40;;;;;;6321692;28;20035;-68
2023/01/24 14:35:20;;;;;;;24.52;9.00;;;9.40;41.40;;;;;;6321840;28;20026;-68
2023/01/24 14:38:21;;;;;;;17.20;7.47;;;9.40;41.40;;;;;;6315121;28;20056;-69
2023/01/24 14:41:22;;;;;;;19.30;8.57;;;9.40;41.40;;;;;;6321961;28;20092;-70
2023/01/24 14:44:29;;;;;;;19.27;8.32;;;9.40;41.40;;;;;;6320611;28;20028;-70
2023/01/24 14:47:30;;;;;;;22.40;7.57;;;10.00;41.70;;;;;;6302731;28;20478;-70
2023/01/24 14:50:34;;;;;;;16.25;7.38;;;9.50;41.30;;;;;;6303358;28;20421;-69
2023/01/24 14:53:37;;;;;;;22.55;8.85;;;9.50;41.20;;;;;;6321733;28;20031;-70
2023/01/24 14:56:39;;;;;;;16.52;7.68;;;9.50;41.30;;;;;;6319835;28;20048;-69
2023/01/24 14:59:40;;;;;;;19.48;8.45;;;9.50;41.30;;;;;;6319447;28;20445;-70
2023/01/24 15:02:56;;;;;;;17.55;8.55;;;9.40;41.30;;;;;;6320063;28;20118;-70
2023/01/24 15:06:00;;;;;;;20.08;9.02;;;9.40;41.30;;;;;;6302479;28;20060;-69
2023/01/24 15:09:02;;;;;;;18.60;8.07;;;9.40;41.30;;;;;;6302777;28;20059;-68
2023/01/24 15:12:24;;;;;;;23.88;8.35;;;9.40;41.40;;;;;;6321311;28;20113;-68
2023/01/24 15:15:26;;;;;;;14.27;7.32;;;9.40;41.40;;;;;;6321284;28;20058;-68
2023/01/24 15:18:35;;;;;;;18.77;8.50;;;9.40;41.40;;;;;;6319625;28;20035;-68
2023/01/24 15:21:44;;;;;;;20.50;8.25;;;9.30;41.50;;;;;;6321218;28;20031;-69
2023/01/24 15:24:50;;;;;;;16.20;8.00;;;9.40;41.60;;;;;;6319408;28;20143;-70
2023/01/24 15:27:52;;;;;;;25.27;8.02;;;9.40;41.60;;;;;;6319331;28;20120;-70
2023/01/24 15:30:55;;;;;;;26.77;7.72;;;9.40;41.80;;;;;;6319745;28;20032;-69
2023/01/24 15:33:58;;;;;;;19.60;8.38;;;9.30;41.90;;;;;;6319928;28;20040;-70
2023/01/24 15:37:01;;;;;;;26.33;8.70;;;9.30;41.90;;;;;;6321173;28;20070;-70
2023/01/24 15:40:02;;;;;;;20.83;8.52;;;9.30;41.90;;;;;;6320647;28;20124;-69
2023/01/24 15:51:05;;;;;;;24.65;9.25;;;9.20;42.00;;;;;;6320775;28;20024;-69
2023/01/24 15:53:27;;;;;;;20.85;8.02;;;9.20;42.10;;;;;;6320927;28;20379;-68
2023/01/24 15:56:29;;;;;;;33.20;7.85;;;9.20;42.20;;;;;;6320597;28;20028;-69
2023/01/24 15:59:31;;;;;;;23.92;8.52;;;9.20;42.20;;;;;;6319025;28;20760;-69
2023/01/24 16:02:32;;;;;;;17.45;7.80;;;9.20;42.30;;;;;;6321346;28;20103;-69
2023/01/24 16:05:33;;;;;;;16.83;8.27;;;9.20;42.40;;;;;;6301802;28;20035;-69
2023/01/24 16:08:34;;;;;;;24.42;8.18;;;9.10;42.50;;;;;;6295911;28;20028;-69
2023/01/24 16:11:40;;;;;;;20.48;7.28;;;9.10;42.50;;;;;;6302480;28;20029;-69
2023/01/24 16:14:50;;;;;;;21.92;8.32;;;9.00;42.50;;;;;;6308254;28;20058;-69
2023/01/24 16:17:51;;;;;;;20.63;7.60;;;9.00;42.70;;;;;;6297590;28;20040;-69
2023/01/24 16:20:52;;;;;;;24.17;8.10;;;9.00;42.70;;;;;;6295330;28;20064;-70
2023/01/24 16:23:53;;;;;;;20.60;9.38;;;8.90;42.80;;;;;;6295568;28;20108;-67
2023/01/24 16:26:55;;;;;;;24.63;9.15;;;8.90;42.90;;;;;;6295604;28;20094;-70
2023/01/24 16:29:55;;;;;;;23.55;9.07;;;8.80;43.00;;;;;;6295244;28;20109;-68
2023/01/24 16:32:57;;;;;;;21.58;9.05;;;8.90;43.20;;;;;;6294000;28;20054;-70
2023/01/24 16:35:58;;;;;;;20.58;8.48;;;8.80;43.30;;;;;;6297373;28;20136;-70
2023/01/24 16:38:59;;;;;;;26.58;8.43;;;8.70;43.40;;;;;;6297649;28;20028;-68
2023/01/24 16:42:02;;;;;;;19.45;8.50;;;8.70;43.60;;;;;;6297607;28;20044;-69
2023/01/24 16:45:03;;;;;;;17.13;7.65;;;8.60;43.90;;;;;;6299358;28;20020;-69
2023/01/24 16:48:04;;;;;;;24.13;7.88;;;8.60;44.00;;;;;;6297816;28;20134;-68
2023/01/24 16:51:10;;;;;;;20.15;8.15;;;8.50;44.30;;;;;;6297914;28;20028;-69
2023/01/24 16:54:10;;;;;;;22.08;8.77;;;8.40;44.50;;;;;;6299550;28;20105;-72
2023/01/24 16:57:11;;;;;;;25.17;8.15;;;8.40;44.80;;;;;;6309314;28;20031;-69